createdAt,value
2018-06-25T00:01:04.825Z,100089.19
2018-06-25T00:03:37.006Z,100090.88
2018-06-25T00:06:08.627Z,100090.88
2018-06-25T00:08:38.999Z,100090.56
2018-06-25T00:11:10.563Z,100092.11
2018-06-25T00:13:43.059Z,100090.87
2018-06-25T00:16:14.902Z,100092.32
2018-06-25T00:18:46.170Z,100096.12
2018-06-25T00:21:18.023Z,100086.14
2018-06-25T00:23:48.885Z,100085.22
2018-06-25T00:26:19.340Z,100081.62
2018-06-25T00:28:51.875Z,100089.83
2018-06-25T00:31:24.229Z,100082.12
2018-06-25T00:33:55.211Z,100088.30
2018-06-25T00:36:25.515Z,100092.39
2018-06-25T00:38:56.531Z,100088.80
2018-06-25T00:41:27.711Z,100089.83
2018-06-25T00:43:58.121Z,100090.63
2018-06-25T00:46:29.273Z,100095.44
2018-06-25T00:49:00.219Z,100102.27
2018-06-25T00:51:31.360Z,100099.80
2018-06-25T00:54:02.303Z,100105.14
2018-06-25T00:56:32.374Z,100102.23
2018-06-25T00:59:14.421Z,100105.84
2018-06-25T01:01:46.183Z,100102.83
2018-06-25T01:04:18.660Z,100095.53
2018-06-25T01:06:49.473Z,100089.68
2018-06-25T01:09:20.339Z,100096.05
2018-06-25T01:11:50.606Z,100086.29
2018-06-25T01:14:22.955Z,100083.41
2018-06-25T01:16:53.907Z,100078.44
2018-06-25T01:19:24.787Z,100073.22
2018-06-25T01:21:55.972Z,100071.12
2018-06-25T01:24:27.222Z,100068.39
2018-06-25T01:26:58.212Z,100080.23
2018-06-25T01:29:29.210Z,100087.90
2018-06-25T01:32:00.155Z,100090.36
2018-06-25T01:34:31.530Z,100090.94
2018-06-25T01:37:02.164Z,100094.58
2018-06-25T01:39:33.146Z,100098.79
2018-06-25T01:42:03.836Z,100103.90
2018-06-25T01:44:36.390Z,100104.44
2018-06-25T01:47:07.443Z,100108.79
2018-06-25T01:49:38.226Z,100106.48
2018-06-25T01:52:10.353Z,100111.08
2018-06-25T01:54:41.356Z,100111.02
2018-06-25T01:57:11.852Z,100107.02
2018-06-25T01:59:44.015Z,100113.75
2018-06-25T02:02:15.659Z,100120.80
2018-06-25T02:04:46.543Z,100125.94
2018-06-25T02:07:18.581Z,100121.50
2018-06-25T02:09:49.352Z,100123.70
2018-06-25T02:12:20.836Z,100124.97
2018-06-25T02:14:51.495Z,100122.13
2018-06-25T02:17:22.498Z,100126.58
2018-06-25T02:19:52.868Z,100122.64
2018-06-25T02:22:24.630Z,100120.94
2018-06-25T02:24:55.772Z,100116.64
2018-06-25T02:27:27.333Z,100116.44
2018-06-25T02:29:59.210Z,100116.24
2018-06-25T02:32:31.574Z,100117.86
2018-06-25T02:35:02.488Z,100116.83
2018-06-25T02:37:33.428Z,100121.20
2018-06-25T02:40:03.785Z,100122.43
2018-06-25T02:42:34.785Z,100134.01
2018-06-25T02:45:06.387Z,100137.40
2018-06-25T02:47:37.699Z,100142.23
2018-06-25T02:50:08.771Z,100140.41
2018-06-25T02:52:39.688Z,100148.00
2018-06-25T02:55:10.126Z,100144.70
2018-06-25T02:57:41.295Z,100146.04
2018-06-25T03:00:13.813Z,100147.59
2018-06-25T03:02:44.847Z,100137.23
2018-06-25T03:05:16.895Z,100137.66
2018-06-25T03:07:48.554Z,100138.09
2018-06-25T03:10:19.451Z,100144.14
2018-06-25T03:12:50.454Z,100143.95
2018-06-25T03:15:22.279Z,100141.28
2018-06-25T03:17:53.468Z,100137.27
2018-06-25T03:20:24.410Z,100142.02
2018-06-25T03:22:55.848Z,100151.06
2018-06-25T03:25:26.910Z,100155.27
2018-06-25T03:27:57.463Z,100148.17
2018-06-25T03:30:29.290Z,100152.70
2018-06-25T03:32:59.834Z,100157.55
2018-06-25T03:35:32.502Z,100156.61
2018-06-25T03:38:03.343Z,100151.43
2018-06-25T03:40:35.523Z,100150.26
2018-06-25T03:43:08.169Z,100155.52
2018-06-25T03:45:40.483Z,100160.53
2018-06-25T03:48:10.850Z,100160.86
2018-06-25T03:50:41.523Z,100166.80
2018-06-25T03:53:11.764Z,100169.55
2018-06-25T03:55:42.505Z,100175.58
2018-06-25T03:58:12.928Z,100175.58
2018-06-25T04:00:43.666Z,100170.48
2018-06-25T04:03:15.815Z,100182.09
2018-06-25T04:05:47.559Z,100178.03
2018-06-25T04:08:18.142Z,100171.94
2018-06-25T04:10:48.554Z,100178.91
2018-06-25T04:13:20.193Z,100179.27
2018-06-25T04:15:51.038Z,100175.50
2018-06-25T04:18:23.130Z,100179.87
2018-06-25T04:20:55.108Z,100184.75
2018-06-25T04:23:26.721Z,100186.02
2018-06-25T04:25:57.839Z,100191.19
2018-06-25T04:28:28.228Z,100186.59
2018-06-25T04:31:01.034Z,100187.52
2018-06-25T04:33:32.468Z,100188.72
2018-06-25T04:36:03.523Z,100198.16
2018-06-25T04:38:34.522Z,100204.43
2018-06-25T04:41:05.615Z,100200.11
2018-06-25T04:43:37.212Z,100202.59
2018-06-25T04:46:08.726Z,100208.34
2018-06-25T04:48:39.284Z,100206.64
2018-06-25T04:51:10.540Z,100213.01
2018-06-25T04:53:42.682Z,100212.92
2018-06-25T04:56:13.732Z,100221.45
2018-06-25T04:58:44.859Z,100216.83
2018-06-25T05:01:15.849Z,100218.41
2018-06-25T05:03:47.679Z,100217.06
2018-06-25T05:06:19.977Z,100216.01
2018-06-25T05:08:51.191Z,100223.25
2018-06-25T05:11:23.891Z,100230.50
2018-06-25T05:13:55.438Z,100232.48
2018-06-25T05:16:25.808Z,100232.52
2018-06-25T05:18:57.403Z,100228.28
2018-06-25T05:21:29.583Z,100234.38
2018-06-25T05:24:01.652Z,100238.88
2018-06-25T05:26:33.019Z,100244.66
2018-06-25T05:29:05.108Z,100246.55
2018-06-25T05:31:36.149Z,100243.52
2018-06-25T05:34:07.255Z,100246.27
2018-06-25T05:36:39.519Z,100251.89
2018-06-25T05:39:12.007Z,100252.08
2018-06-25T05:41:42.999Z,100250.02
2018-06-25T05:44:14.368Z,100250.97
2018-06-25T05:46:45.258Z,100248.91
2018-06-25T05:49:17.012Z,100250.31
2018-06-25T05:51:48.587Z,100253.91
2018-06-25T05:54:20.546Z,100253.41
2018-06-25T05:56:51.477Z,100251.77
2018-06-25T05:59:23.047Z,100247.97
2018-06-25T06:01:53.668Z,100249.55
2018-06-25T06:04:23.936Z,100246.38
2018-06-25T06:06:55.334Z,100251.58
2018-06-25T06:09:26.371Z,100256.52
2018-06-25T06:11:56.466Z,100256.57
2018-06-25T06:14:26.481Z,100258.39
2018-06-25T06:16:56.587Z,100257.63
2018-06-25T06:19:26.618Z,100260.66
2018-06-25T06:21:56.706Z,100267.07
2018-06-25T06:24:26.814Z,100265.53
2018-06-25T06:26:57.159Z,100267.91
2018-06-25T06:29:27.241Z,100263.80
2018-06-25T06:31:57.995Z,100272.60
2018-06-25T06:34:28.494Z,100268.95
2018-06-25T06:36:59.311Z,100269.59
2018-06-25T06:39:29.715Z,100269.24
2018-06-25T06:41:59.793Z,100264.59
2018-06-25T06:44:29.933Z,100267.77
2018-06-25T06:47:00.097Z,100261.00
2018-06-25T06:49:30.116Z,100266.79
2018-06-25T06:52:00.243Z,100265.44
2018-06-25T06:54:30.362Z,100268.98
2018-06-25T06:57:00.439Z,100274.59
2018-06-25T06:59:30.303Z,100272.77
2018-06-25T07:02:00.359Z,100276.92
2018-06-25T07:04:30.551Z,100272.28
2018-06-25T07:07:00.574Z,100277.48
2018-06-25T07:09:30.682Z,100272.80
2018-06-25T07:12:00.716Z,100275.42
2018-06-25T07:14:30.818Z,100279.48
2018-06-25T07:17:00.883Z,100271.16
2018-06-25T07:19:31.294Z,100272.69
2018-06-25T07:22:01.359Z,100280.06
2018-06-25T07:24:31.222Z,100278.99
2018-06-25T07:27:01.378Z,100280.35
2018-06-25T07:29:31.396Z,100287.64
2018-06-25T07:32:01.496Z,100281.86
2018-06-25T07:34:31.520Z,100271.17
2018-06-25T07:37:01.580Z,100276.82
2018-06-25T07:39:31.673Z,100273.56
2018-06-25T07:42:01.690Z,100265.26
2018-06-25T07:44:33.543Z,100270.89
2018-06-25T07:47:03.648Z,100264.20
2018-06-25T07:49:33.905Z,100272.23
2018-06-25T07:52:03.944Z,100283.45
2018-06-25T07:54:34.011Z,100297.58
2018-06-25T07:57:03.831Z,100302.73
2018-06-25T07:59:33.858Z,100302.51
2018-06-25T08:02:03.927Z,100300.61
2018-06-25T08:04:33.940Z,100301.93
2018-06-25T08:07:04.066Z,100297.60
2018-06-25T08:09:34.431Z,100302.75
2018-06-25T08:12:04.506Z,100302.23
2018-06-25T08:14:34.555Z,100305.48
2018-06-25T08:17:04.602Z,100308.21
2018-06-25T08:19:34.410Z,100306.84
2018-06-25T08:22:04.499Z,100312.02
2018-06-25T08:24:35.206Z,100320.47
2018-06-25T08:27:06.345Z,100317.17
2018-06-25T08:29:36.989Z,100316.92
2018-06-25T08:32:07.899Z,100312.85
2018-06-25T08:34:38.486Z,100311.47
2018-06-25T08:37:09.019Z,100306.86
2018-06-25T08:39:39.778Z,100316.36
2018-06-25T08:42:10.326Z,100312.51
2018-06-25T08:44:40.459Z,100317.64
2018-06-25T08:47:10.527Z,100322.21
2018-06-25T08:49:40.575Z,100325.72
2018-06-25T08:52:10.588Z,100327.62
2018-06-25T08:54:40.710Z,100324.87
2018-06-25T08:57:10.819Z,100330.84
2018-06-25T08:59:40.880Z,100327.62
2018-06-25T09:02:10.999Z,100332.02
2018-06-25T09:04:41.391Z,100332.70
2018-06-25T09:07:11.511Z,100343.05
2018-06-25T09:09:41.749Z,100343.04
2018-06-25T09:12:11.880Z,100345.50
2018-06-25T09:14:41.922Z,100342.80
2018-06-25T09:17:12.089Z,100349.30
2018-06-25T09:19:42.806Z,100347.43
2018-06-25T09:22:12.923Z,100349.59
2018-06-25T09:24:43.122Z,100344.95
2018-06-25T09:27:13.509Z,100346.84
2018-06-25T09:29:43.947Z,100341.36
2018-06-25T09:32:14.915Z,100341.62
2018-06-25T09:34:49.197Z,100332.25
2018-06-25T09:37:20.221Z,100341.80
2018-06-25T09:39:52.066Z,100342.31
2018-06-25T09:42:23.539Z,100346.33
2018-06-25T09:44:53.925Z,100345.98
2018-06-25T09:47:25.777Z,100335.66
2018-06-25T09:49:57.423Z,100341.09
2018-06-25T09:52:28.844Z,100336.22
2018-06-25T09:54:59.937Z,100328.87
2018-06-25T09:57:30.991Z,100335.06
2018-06-25T10:00:01.676Z,100325.47
2018-06-25T10:02:32.045Z,100321.55
2018-06-25T10:05:02.910Z,100322.79
2018-06-25T10:07:35.503Z,100320.66
2018-06-25T10:10:06.151Z,100316.88
2018-06-25T10:12:36.762Z,100320.16
2018-06-25T10:15:07.469Z,100314.70
2018-06-25T10:17:38.086Z,100318.42
2018-06-25T10:20:08.775Z,100308.91
2018-06-25T10:22:39.400Z,100309.52
2018-06-25T10:25:10.038Z,100310.91
2018-06-25T10:27:40.626Z,100307.36
2018-06-25T10:30:11.313Z,100317.07
2018-06-25T10:32:41.899Z,100322.91
2018-06-25T10:35:12.555Z,100324.84
2018-06-25T10:37:43.176Z,100316.70
2018-06-25T10:40:14.183Z,100320.48
2018-06-25T10:42:44.840Z,100307.15
2018-06-25T10:45:15.764Z,100305.44
2018-06-25T10:47:46.368Z,100309.27
2018-06-25T10:50:17.018Z,100305.07
2018-06-25T10:52:47.612Z,100306.64
2018-06-25T10:55:18.288Z,100303.02
2018-06-25T10:57:49.004Z,100299.66
2018-06-25T11:00:19.670Z,100299.91
2018-06-25T11:02:50.466Z,100301.66
2018-06-25T11:05:21.115Z,100299.52
2018-06-25T11:07:51.800Z,100300.08
2018-06-25T11:10:22.654Z,100301.96
2018-06-25T11:12:53.275Z,100293.89
2018-06-25T11:15:24.154Z,100288.16
2018-06-25T11:17:54.762Z,100291.44
2018-06-25T11:20:25.443Z,100290.90
2018-06-25T11:22:56.035Z,100290.14
2018-06-25T11:25:26.663Z,100285.41
2018-06-25T11:27:57.554Z,100284.13
2018-06-25T11:30:28.216Z,100287.05
2018-06-25T11:32:58.582Z,100285.95
2018-06-25T11:35:29.319Z,100279.91
2018-06-25T11:37:59.936Z,100285.52
2018-06-25T11:40:30.591Z,100288.72
2018-06-25T11:43:01.186Z,100291.27
2018-06-25T11:45:31.965Z,100292.73
2018-06-25T11:48:02.640Z,100279.76
2018-06-25T11:50:33.327Z,100285.16
2018-06-25T11:53:03.939Z,100278.68
2018-06-25T11:55:34.720Z,100279.50
2018-06-25T11:58:05.396Z,100279.27
2018-06-25T12:00:36.100Z,100284.02
2018-06-25T12:03:07.366Z,100272.34
2018-06-25T12:05:38.051Z,100272.07
2018-06-25T12:08:08.640Z,100269.78
2018-06-25T12:10:39.319Z,100272.18
2018-06-25T12:13:09.975Z,100268.06
2018-06-25T12:15:40.633Z,100261.55
2018-06-25T12:18:11.241Z,100261.70
2018-06-25T12:20:41.897Z,100263.72
2018-06-25T12:23:12.486Z,100259.84
2018-06-25T12:25:43.111Z,100259.27
2018-06-25T12:28:13.689Z,100257.63
2018-06-25T12:30:44.382Z,100263.34
2018-06-25T12:33:14.957Z,100261.34
2018-06-25T12:35:45.662Z,100255.27
2018-06-25T12:38:16.326Z,100250.53
2018-06-25T12:40:46.979Z,100249.28
2018-06-25T12:43:17.572Z,100252.16
2018-06-25T12:45:48.102Z,100247.25
2018-06-25T12:48:18.720Z,100251.18
2018-06-25T12:50:49.382Z,100252.66
2018-06-25T12:53:19.962Z,100246.02
2018-06-25T12:55:50.619Z,100238.13
2018-06-25T12:58:21.234Z,100237.36
2018-06-25T13:00:51.875Z,100236.86
2018-06-25T13:03:22.517Z,100233.84
2018-06-25T13:05:53.164Z,100237.77
2018-06-25T13:08:23.894Z,100229.71
2018-06-25T13:10:55.327Z,100226.50
2018-06-25T13:13:26.568Z,100231.84
2018-06-25T13:15:57.525Z,100222.63
2018-06-25T13:18:28.136Z,100224.08
2018-06-25T13:20:59.091Z,100228.41
2018-06-25T13:23:29.748Z,100215.22
2018-06-25T13:26:00.404Z,100209.78
2018-06-25T13:28:31.020Z,100208.28
2018-06-25T13:31:01.744Z,100208.38
2018-06-25T13:33:32.334Z,100207.88
2018-06-25T13:36:03.631Z,100209.30
2018-06-25T13:38:34.223Z,100210.77
2018-06-25T13:41:04.686Z,100214.41
2018-06-25T13:43:35.320Z,100208.67
2018-06-25T13:46:06.232Z,100210.66
2018-06-25T13:48:36.884Z,100213.59
2018-06-25T13:51:07.654Z,100221.13
2018-06-25T13:53:38.275Z,100221.21
2018-06-25T13:56:08.926Z,100216.13
2018-06-25T13:58:46.200Z,100220.61
2018-06-25T14:01:16.858Z,100215.59
2018-06-25T14:03:47.534Z,100213.41
2018-06-25T14:06:18.408Z,100203.09
2018-06-25T14:08:48.471Z,100202.73
2018-06-25T14:11:19.081Z,100201.14
2018-06-25T14:13:49.707Z,100201.50
2018-06-25T14:16:19.915Z,100204.13
2018-06-25T14:18:50.703Z,100199.11
2018-06-25T14:21:21.622Z,100199.31
2018-06-25T14:23:56.898Z,100198.25
2018-06-25T14:26:30.886Z,100202.52
2018-06-25T14:29:00.902Z,100209.72
2018-06-25T14:31:30.935Z,100207.70
2018-06-25T14:34:06.673Z,100203.75
2018-06-25T14:36:36.695Z,100202.49
2018-06-25T14:39:09.502Z,100205.52
2018-06-25T14:41:39.512Z,100199.80
2018-06-25T14:44:09.900Z,100196.45
2018-06-25T14:46:40.175Z,100200.13
2018-06-25T14:49:10.222Z,100197.84
2018-06-25T14:51:42.419Z,100194.48
2018-06-25T14:54:12.478Z,100192.27
2018-06-25T14:56:42.309Z,100186.80
2018-06-25T14:59:12.349Z,100181.59
2018-06-25T15:01:42.559Z,100187.91
2018-06-25T15:04:12.627Z,100190.94
2018-06-25T15:06:43.255Z,100179.54
2018-06-25T15:09:14.219Z,100178.39
2018-06-25T15:11:46.044Z,100173.61
2018-06-25T15:14:16.982Z,100173.54
2018-06-25T15:16:48.408Z,100171.06
2018-06-25T15:19:18.843Z,100169.81
2018-06-25T15:21:48.622Z,100167.22
2018-06-25T15:24:18.659Z,100171.84
2018-06-25T15:26:48.693Z,100178.84
2018-06-25T15:29:19.554Z,100176.27
2018-06-25T15:31:49.821Z,100172.99
2018-06-25T15:34:20.100Z,100169.42
2018-06-25T15:36:50.777Z,100165.06
2018-06-25T15:39:20.799Z,100161.04
2018-06-25T15:41:50.908Z,100159.48
2018-06-25T15:44:20.928Z,100156.75
2018-06-25T15:46:51.035Z,100164.58
2018-06-25T15:49:21.107Z,100167.24
2018-06-25T15:51:51.163Z,100166.82
2018-06-25T15:54:21.270Z,100171.03
2018-06-25T15:56:51.314Z,100168.81
2018-06-25T15:59:21.367Z,100165.75
2018-06-25T16:01:51.420Z,100161.69
2018-06-25T16:04:21.891Z,100160.29
2018-06-25T16:06:52.020Z,100164.12
2018-06-25T16:09:22.229Z,100163.05
2018-06-25T16:11:52.431Z,100166.09
2018-06-25T16:14:22.518Z,100161.25
2018-06-25T16:16:53.858Z,100164.06
2018-06-25T16:19:24.260Z,100164.19
2018-06-25T16:21:54.350Z,100163.77
2018-06-25T16:24:24.415Z,100161.63
2018-06-25T16:26:54.472Z,100163.22
2018-06-25T16:29:24.553Z,100162.92
2018-06-25T16:31:55.066Z,100162.86
2018-06-25T16:34:25.277Z,100159.31
2018-06-25T16:36:55.282Z,100161.98
2018-06-25T16:39:25.319Z,100159.52
2018-06-25T16:41:55.335Z,100163.60
2018-06-25T16:44:25.610Z,100167.95
2018-06-25T16:46:58.695Z,100169.33
2018-06-25T16:49:28.734Z,100163.67
2018-06-25T16:51:58.814Z,100161.04
2018-06-25T16:54:28.914Z,100155.09
2018-06-25T16:56:59.008Z,100147.58
2018-06-25T16:59:29.088Z,100159.61
2018-06-25T17:01:59.433Z,100157.54
2018-06-25T17:04:29.535Z,100156.22
2018-06-25T17:06:59.543Z,100156.25
2018-06-25T17:09:29.614Z,100154.07
2018-06-25T17:11:59.616Z,100154.94
2018-06-25T17:14:29.659Z,100159.87
2018-06-25T17:16:59.935Z,100148.75
2018-06-25T17:19:29.971Z,100155.05
2018-06-25T17:22:00.111Z,100155.41
2018-06-25T17:24:30.348Z,100150.26
2018-06-25T17:27:00.411Z,100161.20
2018-06-25T17:29:30.496Z,100155.77
2018-06-25T17:32:00.530Z,100159.59
2018-06-25T17:34:30.634Z,100174.02
2018-06-25T17:37:00.752Z,100173.75
2018-06-25T17:39:31.179Z,100177.00
2018-06-25T17:42:01.323Z,100179.46
2018-06-25T17:44:31.435Z,100183.84
2018-06-25T17:47:01.651Z,100181.65
2018-06-25T17:49:31.667Z,100187.94
2018-06-25T17:52:01.823Z,100185.78
2018-06-25T17:54:31.913Z,100189.31
2018-06-25T17:57:02.167Z,100187.94
2018-06-25T17:59:32.243Z,100186.61
2018-06-25T18:02:02.298Z,100185.26
2018-06-25T18:04:32.382Z,100189.31
2018-06-25T18:07:02.452Z,100190.13
2018-06-25T18:09:32.463Z,100196.09
2018-06-25T18:12:02.598Z,100200.98
2018-06-25T18:14:32.651Z,100215.39
2018-06-25T18:17:02.700Z,100210.77
2018-06-25T18:19:32.801Z,100210.20
2018-06-25T18:22:02.827Z,100210.45
2018-06-25T18:24:32.900Z,100214.79
2018-06-25T18:27:03.062Z,100215.04
2018-06-25T18:29:32.960Z,100241.42
2018-06-25T18:32:03.003Z,100259.80
2018-06-25T18:34:32.959Z,100280.48
2018-06-25T18:37:03.047Z,100253.48
2018-06-25T18:39:33.087Z,100269.56
2018-06-25T18:42:03.803Z,100260.37
2018-06-25T18:44:33.869Z,100263.22
2018-06-25T18:47:04.054Z,100265.09
2018-06-25T18:49:34.289Z,100273.14
2018-06-25T18:52:04.347Z,100273.80
2018-06-25T18:54:34.799Z,100271.98
2018-06-25T18:57:04.868Z,100268.90
2018-06-25T18:59:34.920Z,100270.63
2018-06-25T19:02:05.075Z,100294.22
2018-06-25T19:04:35.084Z,100299.90
2018-06-25T19:07:05.162Z,100305.01
2018-06-25T19:09:35.202Z,100294.14
2018-06-25T19:12:05.396Z,100308.73
2018-06-25T19:14:35.655Z,100320.28
2018-06-25T19:17:13.223Z,100333.48
2018-06-25T19:19:43.259Z,100325.15
2018-06-25T19:22:13.340Z,100326.20
2018-06-25T19:24:43.418Z,100325.73
2018-06-25T19:27:13.508Z,100319.00
2018-06-25T19:29:43.784Z,100332.88
2018-06-25T19:32:13.805Z,100332.77
2018-06-25T19:34:43.854Z,100321.94
2018-06-25T19:37:13.899Z,100324.39
2018-06-25T19:39:44.012Z,100335.13
2018-06-25T19:42:14.028Z,100324.34
2018-06-25T19:44:44.139Z,100311.64
2018-06-25T19:47:14.683Z,100312.23
2018-06-25T19:49:44.731Z,100323.62
2018-06-25T19:52:14.747Z,100328.72
2018-06-25T19:54:44.767Z,100332.00
2018-06-25T19:57:14.839Z,100339.13
2018-06-25T19:59:44.913Z,100342.53
2018-06-25T20:02:15.158Z,100342.16
2018-06-25T20:04:45.373Z,100345.23
2018-06-25T20:07:15.422Z,100353.18
2018-06-25T20:09:45.443Z,100353.97
2018-06-25T20:12:15.547Z,100366.95
2018-06-25T20:14:45.750Z,100366.95
2018-06-25T20:17:15.911Z,100362.37
2018-06-25T20:19:46.074Z,100357.60
2018-06-25T20:22:16.461Z,100349.90
2018-06-25T20:24:46.695Z,100349.02
2018-06-25T20:27:16.608Z,100343.44
2018-06-25T20:29:46.650Z,100339.19
2018-06-25T20:32:16.762Z,100340.83
2018-06-25T20:34:46.834Z,100337.31
2018-06-25T20:37:16.908Z,100333.51
2018-06-25T20:39:47.124Z,100337.78
2018-06-25T20:42:17.139Z,100348.25
2018-06-25T20:44:47.182Z,100342.41
2018-06-25T20:47:17.351Z,100342.29
2018-06-25T20:49:47.453Z,100351.84
2018-06-25T20:52:17.478Z,100352.59
2018-06-25T20:54:47.531Z,100352.83
2018-06-25T20:57:17.655Z,100345.87
2018-06-25T20:59:47.705Z,100350.36
2018-06-25T21:02:17.771Z,100347.81
2018-06-25T21:04:47.807Z,100347.38
2018-06-25T21:07:17.899Z,100349.44
2018-06-25T21:09:48.052Z,100351.61
2018-06-25T21:12:18.351Z,100358.03
2018-06-25T21:14:48.433Z,100358.85
2018-06-25T21:17:18.507Z,100363.63
2018-06-25T21:19:48.596Z,100364.55
2018-06-25T21:22:18.999Z,100365.27
2018-06-25T21:24:49.099Z,100365.81
2018-06-25T21:27:19.347Z,100368.14
2018-06-25T21:29:49.555Z,100374.12
2018-06-25T21:32:19.659Z,100371.44
2018-06-25T21:34:49.701Z,100370.16
2018-06-25T21:37:19.767Z,100370.69
2018-06-25T21:39:49.810Z,100367.70
2018-06-25T21:42:19.852Z,100374.72
2018-06-25T21:44:49.950Z,100368.34
2018-06-25T21:47:20.214Z,100371.73
2018-06-25T21:49:50.419Z,100365.00
2018-06-25T21:52:20.527Z,100360.97
2018-06-25T21:54:50.578Z,100355.87
2018-06-25T21:57:21.716Z,100357.98
2018-06-25T21:59:51.521Z,100358.97
2018-06-25T22:02:21.523Z,100355.34
2018-06-25T22:04:51.746Z,100351.94
2018-06-25T22:07:21.909Z,100352.22
2018-06-25T22:09:52.180Z,100344.14
2018-06-25T22:12:22.330Z,100344.66
2018-06-25T22:14:52.529Z,100344.28
2018-06-25T22:17:22.714Z,100339.73
2018-06-25T22:19:52.932Z,100336.81
2018-06-25T22:22:23.198Z,100339.73
2018-06-25T22:24:53.393Z,100339.80
2018-06-25T22:27:23.712Z,100344.01
2018-06-25T22:29:53.918Z,100341.09
2018-06-25T22:32:24.085Z,100336.59
2018-06-25T22:34:54.831Z,100334.66
2018-06-25T22:37:24.994Z,100331.02
2018-06-25T22:39:55.174Z,100325.97
2018-06-25T22:42:27.323Z,100324.66
2018-06-25T22:44:57.313Z,100326.16
2018-06-25T22:47:27.493Z,100332.56
2018-06-25T22:49:57.681Z,100332.13
2018-06-25T22:52:27.806Z,100327.83
2018-06-25T22:54:57.942Z,100326.61
2018-06-25T22:57:27.910Z,100322.91
2018-06-25T22:59:58.218Z,100326.42
2018-06-25T23:02:28.475Z,100324.09
2018-06-25T23:04:58.414Z,100316.90
2018-06-25T23:07:28.702Z,100309.23
2018-06-25T23:09:58.931Z,100311.03
2018-06-25T23:12:29.122Z,100318.65
2018-06-25T23:14:59.373Z,100321.11
2018-06-25T23:17:29.565Z,100327.89
2018-06-25T23:19:59.798Z,100330.70
2018-06-25T23:22:29.954Z,100331.07
2018-06-25T23:24:59.886Z,100333.17
2018-06-25T23:27:30.003Z,100329.78
2018-06-25T23:30:00.160Z,100334.22
2018-06-25T23:32:30.726Z,100336.34
2018-06-25T23:35:00.903Z,100339.33
2018-06-25T23:37:30.942Z,100339.31
2018-06-25T23:40:01.125Z,100338.84
2018-06-25T23:42:31.418Z,100346.16
2018-06-25T23:45:01.626Z,100345.75
2018-06-25T23:47:32.061Z,100350.53
2018-06-25T23:50:02.249Z,100350.58
2018-06-25T23:52:32.475Z,100352.84
2018-06-25T23:55:02.724Z,100350.08
2018-06-25T23:57:33.276Z,100353.49
